LAN311 SCTE-SCCI
Flight info
| Callsign | LAN311 |
|---|---|
| Flight time | 2h 14m |
| Altitude | 29000 |
| Route | GUTIN4C GUTIN UQ803 NEDAX NEDAX3E |
| Aircraft | F28/M-SDFIRWY/H |
Departure
| Time | 2026-04-24 19:00 |
|---|---|
| Airport | El Tepual International Airport (SCTE) |
Arrival
| Time | 2026-04-24 21:15 |
|---|---|
| Airport | President Carlos Ibáñez International Airport (SCCI) |
| Time | Latitude | Longitude | Altitude | Speed | Heading |
|---|---|---|---|---|---|
| 2026-04-24 18:54 | -41.43223 | -73.09592 | 267 ft | 0 kts | 181° |
| 2026-04-24 18:55 | -41.43227 | -73.09592 | 267 ft | 3 kts | 181° |
| 2026-04-24 18:55 | -41.43285 | -73.09595 | 267 ft | 12 kts | 182° |
| 2026-04-24 18:55 | -41.43362 | -73.09598 | 268 ft | 10 kts | 181° |
| 2026-04-24 18:56 | -41.43424 | -73.09599 | 269 ft | 8 kts | 179° |
| 2026-04-24 18:56 | -41.43461 | -73.09576 | 269 ft | 5 kts | 129° |
| 2026-04-24 18:56 | -41.43470 | -73.09528 | 270 ft | 6 kts | 95° |
| 2026-04-24 18:56 | -41.43473 | -73.09467 | 270 ft | 7 kts | 92° |
| 2026-04-24 18:57 | -41.43462 | -73.09403 | 270 ft | 8 kts | 51° |
| 2026-04-24 18:57 | -41.43395 | -73.09379 | 269 ft | 13 kts | 2° |
| 2026-04-24 18:57 | -41.43295 | -73.09376 | 268 ft | 17 kts | 2° |
| 2026-04-24 18:57 | -41.43166 | -73.09372 | 266 ft | 20 kts | 1° |
| 2026-04-24 18:58 | -41.43010 | -73.09366 | 263 ft | 25 kts | 2° |
| 2026-04-24 18:58 | -41.42831 | -73.09358 | 262 ft | 26 kts | 1° |
| 2026-04-24 18:58 | -41.42721 | -73.09383 | 260 ft | 1 kts | 0° |
| 2026-04-24 18:58 | -41.42713 | -73.09370 | 260 ft | 2 kts | 87° |
| 2026-04-24 18:59 | -41.42724 | -73.09357 | 261 ft | 3 kts | 163° |
| 2026-04-24 18:59 | -41.42734 | -73.09356 | 261 ft | 0 kts | 180° |
| 2026-04-24 18:59 | -41.42816 | -73.09357 | 262 ft | 37 kts | 181° |
| 2026-04-24 19:00 | -41.43390 | -73.09381 | 269 ft | 126 kts | 182° |
| 2026-04-24 19:00 | -41.44497 | -73.09400 | 495 ft | 185 kts | 181° |
| 2026-04-24 19:00 | -41.45987 | -73.09418 | 1068 ft | 236 kts | 175° |
| 2026-04-24 19:00 | -41.47654 | -73.09082 | 1876 ft | 244 kts | 168° |
| 2026-04-24 19:01 | -41.49296 | -73.08507 | 2785 ft | 245 kts | 164° |
| 2026-04-24 19:01 | -41.50984 | -73.07853 | 3382 ft | 259 kts | 166° |
| 2026-04-24 19:01 | -41.52709 | -73.07245 | 3874 ft | 258 kts | 167° |
| 2026-04-24 19:01 | -41.54439 | -73.06665 | 4371 ft | 253 kts | 168° |
| 2026-04-24 19:02 | -41.55586 | -73.06286 | 4697 ft | 249 kts | 168° |
| 2026-04-24 19:02 | -41.57778 | -73.05573 | 5348 ft | 243 kts | 169° |
| 2026-04-24 19:02 | -41.59451 | -73.05034 | 5854 ft | 251 kts | 170° |
| 2026-04-24 19:02 | -41.61183 | -73.04490 | 6345 ft | 261 kts | 170° |
| 2026-04-24 19:03 | -41.62986 | -73.03925 | 6874 ft | 271 kts | 170° |
| 2026-04-24 19:03 | -41.64845 | -73.03338 | 7398 ft | 277 kts | 171° |
| 2026-04-24 19:03 | -41.66742 | -73.02727 | 7889 ft | 284 kts | 171° |
| 2026-04-24 19:03 | -41.68666 | -73.02095 | 8380 ft | 285 kts | 171° |
| 2026-04-24 19:04 | -41.70598 | -73.01466 | 8876 ft | 287 kts | 171° |
| 2026-04-24 19:04 | -41.72543 | -73.00834 | 9380 ft | 286 kts | 171° |
| 2026-04-24 19:04 | -41.74474 | -73.00196 | 9902 ft | 286 kts | 172° |
| 2026-04-24 19:04 | -41.76413 | -72.99584 | 10404 ft | 287 kts | 173° |
| 2026-04-24 19:05 | -41.78362 | -72.99002 | 10839 ft | 288 kts | 173° |
| 2026-04-24 19:05 | -41.80334 | -72.98441 | 11238 ft | 291 kts | 174° |
| 2026-04-24 19:05 | -41.82325 | -72.97892 | 11629 ft | 293 kts | 174° |
| 2026-04-24 19:05 | -41.84372 | -72.97336 | 12043 ft | 306 kts | 174° |
| 2026-04-24 19:06 | -41.86501 | -72.96744 | 12466 ft | 319 kts | 174° |
| 2026-04-24 19:06 | -41.88723 | -72.96113 | 12896 ft | 332 kts | 174° |
| 2026-04-24 19:06 | -41.90988 | -72.95463 | 13315 ft | 343 kts | 174° |
| 2026-04-24 19:06 | -41.93359 | -72.94780 | 13755 ft | 354 kts | 174° |
| 2026-04-24 19:07 | -41.95802 | -72.94076 | 14181 ft | 364 kts | 174° |
| 2026-04-24 19:07 | -41.98310 | -72.93369 | 14570 ft | 373 kts | 174° |
| 2026-04-24 19:07 | -42.00009 | -72.92881 | 14829 ft | 379 kts | 174° |
| 2026-04-24 19:07 | -42.03465 | -72.91871 | 15356 ft | 380 kts | 174° |
| 2026-04-24 19:08 | -42.06054 | -72.91136 | 15769 ft | 381 kts | 174° |
| 2026-04-24 19:08 | -42.08658 | -72.90405 | 16152 ft | 383 kts | 174° |
| 2026-04-24 19:08 | -42.11279 | -72.89668 | 16562 ft | 385 kts | 174° |
| 2026-04-24 19:08 | -42.13903 | -72.88904 | 16985 ft | 387 kts | 174° |
| 2026-04-24 19:09 | -42.16542 | -72.88147 | 17402 ft | 388 kts | 174° |
| 2026-04-24 19:09 | -42.19158 | -72.87399 | 17814 ft | 390 kts | 174° |
| 2026-04-24 19:09 | -42.21810 | -72.86639 | 18240 ft | 391 kts | 174° |
| 2026-04-24 19:09 | -42.24481 | -72.85871 | 18659 ft | 393 kts | 174° |
| 2026-04-24 19:10 | -42.27156 | -72.85100 | 19036 ft | 394 kts | 174° |
| 2026-04-24 19:10 | -42.29842 | -72.84322 | 19411 ft | 396 kts | 174° |
| 2026-04-24 19:10 | -42.32543 | -72.83541 | 19796 ft | 397 kts | 174° |
| 2026-04-24 19:10 | -42.35248 | -72.82754 | 20204 ft | 398 kts | 174° |
| 2026-04-24 19:11 | -42.37958 | -72.82014 | 20600 ft | 397 kts | 177° |
| 2026-04-24 19:11 | -42.40688 | -72.81534 | 21001 ft | 393 kts | 182° |
| 2026-04-24 19:11 | -42.43413 | -72.81345 | 21408 ft | 391 kts | 185° |
| 2026-04-24 19:11 | -42.46130 | -72.81348 | 21821 ft | 389 kts | 187° |
| 2026-04-24 19:12 | -42.48830 | -72.81462 | 22236 ft | 387 kts | 189° |
| 2026-04-24 19:12 | -42.51519 | -72.81624 | 22659 ft | 386 kts | 189° |
| 2026-04-24 19:12 | -42.54204 | -72.81802 | 23125 ft | 385 kts | 189° |
| 2026-04-24 19:12 | -42.56876 | -72.81978 | 23576 ft | 384 kts | 189° |
| 2026-04-24 19:13 | -42.58647 | -72.82093 | 23864 ft | 383 kts | 189° |
| 2026-04-24 19:13 | -42.62205 | -72.82318 | 24362 ft | 381 kts | 189° |
| 2026-04-24 19:13 | -42.64815 | -72.82478 | 24740 ft | 379 kts | 189° |
| 2026-04-24 19:13 | -42.67444 | -72.82635 | 25132 ft | 377 kts | 190° |
| 2026-04-24 19:14 | -42.70071 | -72.82786 | 25464 ft | 377 kts | 190° |
| 2026-04-24 19:14 | -42.72688 | -72.82934 | 25806 ft | 377 kts | 190° |
| 2026-04-24 19:14 | -42.75312 | -72.83072 | 26132 ft | 376 kts | 190° |
| 2026-04-24 19:14 | -42.77931 | -72.83204 | 26453 ft | 376 kts | 190° |
| 2026-04-24 19:15 | -42.80547 | -72.83332 | 26724 ft | 377 kts | 190° |
| 2026-04-24 19:15 | -42.83174 | -72.83459 | 26992 ft | 377 kts | 190° |
| 2026-04-24 19:15 | -42.85800 | -72.83599 | 27267 ft | 378 kts | 190° |
| 2026-04-24 19:15 | -42.88430 | -72.83751 | 27531 ft | 378 kts | 190° |
| 2026-04-24 19:16 | -42.93692 | -72.84043 | 28112 ft | 378 kts | 190° |
| 2026-04-24 19:16 | -42.96321 | -72.84203 | 28385 ft | 378 kts | 191° |
| 2026-04-24 19:16 | -42.98945 | -72.84363 | 28658 ft | 378 kts | 190° |
| 2026-04-24 19:17 | -43.01566 | -72.84509 | 28933 ft | 377 kts | 191° |
| 2026-04-24 19:17 | -43.04190 | -72.84665 | 29192 ft | 377 kts | 191° |
| 2026-04-24 19:17 | -43.09466 | -72.84953 | 29304 ft | 388 kts | 190° |
| 2026-04-24 19:18 | -43.14878 | -72.85237 | 29318 ft | 388 kts | 190° |
| 2026-04-24 19:18 | -43.20259 | -72.85538 | 29291 ft | 383 kts | 190° |
| 2026-04-24 19:19 | -43.25565 | -72.85849 | 29282 ft | 382 kts | 190° |
| 2026-04-24 19:19 | -43.30824 | -72.86145 | 29263 ft | 377 kts | 191° |
| 2026-04-24 19:20 | -43.36046 | -72.86444 | 29224 ft | 374 kts | 190° |
| 2026-04-24 19:20 | -43.41231 | -72.86752 | 29245 ft | 372 kts | 191° |
| 2026-04-24 19:21 | -43.46461 | -72.87045 | 29277 ft | 377 kts | 190° |
| 2026-04-24 19:21 | -43.51712 | -72.87329 | 29313 ft | 376 kts | 190° |
| 2026-04-24 19:22 | -43.56939 | -72.87631 | 29205 ft | 375 kts | 190° |
| 2026-04-24 19:22 | -43.62141 | -72.87933 | 29268 ft | 374 kts | 190° |
| 2026-04-24 19:23 | -43.67358 | -72.88251 | 29227 ft | 376 kts | 190° |
| 2026-04-24 19:23 | -43.72574 | -72.88558 | 29141 ft | 374 kts | 190° |
| 2026-04-24 19:24 | -43.77709 | -72.88864 | 29162 ft | 369 kts | 191° |
| 2026-04-24 19:24 | -43.82831 | -72.89183 | 29248 ft | 369 kts | 190° |
| 2026-04-24 19:25 | -43.87969 | -72.89489 | 29297 ft | 371 kts | 191° |
| 2026-04-24 19:25 | -43.93151 | -72.89797 | 29190 ft | 372 kts | 191° |
| 2026-04-24 19:26 | -43.98324 | -72.90110 | 29229 ft | 372 kts | 191° |
| 2026-04-24 19:26 | -44.03496 | -72.90422 | 29219 ft | 372 kts | 190° |
| 2026-04-24 19:27 | -44.08680 | -72.90726 | 29260 ft | 373 kts | 191° |
| 2026-04-24 19:27 | -44.13894 | -72.91018 | 29293 ft | 376 kts | 190° |
| 2026-04-24 19:28 | -44.19140 | -72.91278 | 29274 ft | 378 kts | 190° |
| 2026-04-24 19:28 | -44.24376 | -72.91603 | 29271 ft | 380 kts | 190° |
| 2026-04-24 19:29 | -44.32332 | -72.92073 | 29275 ft | 383 kts | 189° |
| 2026-04-24 19:30 | -44.37671 | -72.92381 | 29232 ft | 383 kts | 190° |
| 2026-04-24 19:30 | -44.42997 | -72.92692 | 29282 ft | 383 kts | 190° |
| 2026-04-24 19:31 | -44.48333 | -72.93003 | 29251 ft | 384 kts | 190° |
| 2026-04-24 19:31 | -44.53668 | -72.93338 | 29228 ft | 384 kts | 190° |
| 2026-04-24 19:32 | -44.59001 | -72.93689 | 29214 ft | 383 kts | 190° |
| 2026-04-24 19:32 | -44.64283 | -72.94017 | 29196 ft | 382 kts | 189° |
| 2026-04-24 19:33 | -44.68715 | -72.94293 | 29139 ft | 379 kts | 189° |
| 2026-04-24 19:33 | -44.74841 | -72.94623 | 29214 ft | 378 kts | 189° |
| 2026-04-24 19:34 | -44.80088 | -72.94935 | 29192 ft | 376 kts | 190° |
| 2026-04-24 19:34 | -44.84432 | -72.95206 | 29209 ft | 376 kts | 189° |
| 2026-04-24 19:35 | -44.89662 | -72.95516 | 29223 ft | 376 kts | 189° |
| 2026-04-24 19:35 | -44.95748 | -72.95882 | 29212 ft | 377 kts | 189° |
| 2026-04-24 19:36 | -45.00107 | -72.96133 | 29218 ft | 377 kts | 189° |
| 2026-04-24 19:36 | -45.05355 | -72.96429 | 29190 ft | 377 kts | 189° |
| 2026-04-24 19:37 | -45.10602 | -72.96741 | 29204 ft | 377 kts | 189° |
| 2026-04-24 19:37 | -45.15841 | -72.97068 | 29198 ft | 377 kts | 189° |
| 2026-04-24 19:38 | -45.21094 | -72.97406 | 29191 ft | 377 kts | 189° |
| 2026-04-24 19:38 | -45.26335 | -72.97750 | 29183 ft | 377 kts | 189° |
| 2026-04-24 19:39 | -45.31568 | -72.98105 | 29197 ft | 377 kts | 189° |
| 2026-04-24 19:39 | -45.36813 | -72.98418 | 29180 ft | 377 kts | 189° |
| 2026-04-24 19:40 | -45.42021 | -72.98747 | 29194 ft | 377 kts | 189° |
| 2026-04-24 19:40 | -45.47274 | -72.99040 | 29172 ft | 377 kts | 189° |
| 2026-04-24 19:41 | -45.52516 | -72.99376 | 29179 ft | 377 kts | 189° |
| 2026-04-24 19:41 | -45.57770 | -72.99675 | 29202 ft | 378 kts | 189° |
| 2026-04-24 19:42 | -45.63027 | -73.00004 | 29184 ft | 378 kts | 189° |
| 2026-04-24 19:42 | -45.68248 | -73.00355 | 29166 ft | 377 kts | 189° |
| 2026-04-24 19:43 | -45.73504 | -73.00668 | 29174 ft | 377 kts | 189° |
| 2026-04-24 19:43 | -45.78749 | -73.00982 | 29230 ft | 377 kts | 189° |
| 2026-04-24 19:44 | -45.84008 | -73.01311 | 29179 ft | 378 kts | 189° |
| 2026-04-24 19:44 | -45.89268 | -73.01641 | 29179 ft | 378 kts | 189° |
| 2026-04-24 19:45 | -45.94483 | -73.01945 | 29126 ft | 376 kts | 189° |
| 2026-04-24 19:45 | -45.99700 | -73.02299 | 29171 ft | 375 kts | 189° |
| 2026-04-24 19:46 | -46.04921 | -73.02611 | 29194 ft | 375 kts | 189° |
| 2026-04-24 19:46 | -46.10137 | -73.02937 | 29154 ft | 375 kts | 189° |
| 2026-04-24 19:47 | -46.15349 | -73.03251 | 29125 ft | 374 kts | 189° |
| 2026-04-24 19:47 | -46.20535 | -73.03605 | 29197 ft | 374 kts | 190° |
| 2026-04-24 19:48 | -46.25739 | -73.03942 | 29164 ft | 375 kts | 189° |
| 2026-04-24 19:48 | -46.33534 | -73.04433 | 29203 ft | 374 kts | 189° |
| 2026-04-24 19:49 | -46.43938 | -73.05082 | 29175 ft | 375 kts | 189° |
| 2026-04-24 19:50 | -46.54322 | -73.05759 | 29023 ft | 372 kts | 189° |
| 2026-04-24 19:51 | -46.61958 | -73.06232 | 29038 ft | 364 kts | 189° |
| 2026-04-24 19:52 | -46.69525 | -73.06678 | 29120 ft | 363 kts | 189° |
| 2026-04-24 19:52 | -46.74574 | -73.07008 | 29110 ft | 363 kts | 189° |
| 2026-04-24 19:53 | -46.79633 | -73.07337 | 29213 ft | 365 kts | 189° |
| 2026-04-24 19:54 | -46.87279 | -73.07842 | 29059 ft | 367 kts | 189° |
| 2026-04-24 19:54 | -46.92370 | -73.08169 | 29023 ft | 365 kts | 189° |
| 2026-04-24 19:54 | -46.94899 | -73.08320 | 29137 ft | 363 kts | 190° |
| 2026-04-24 19:55 | -46.96573 | -73.08441 | 29221 ft | 363 kts | 189° |
| 2026-04-24 19:55 | -47.02436 | -73.09091 | 29203 ft | 362 kts | 193° |
| 2026-04-24 19:56 | -47.07446 | -73.10046 | 29191 ft | 364 kts | 194° |
| 2026-04-24 19:56 | -47.12497 | -73.11010 | 29186 ft | 367 kts | 194° |
| 2026-04-24 19:57 | -47.17575 | -73.11947 | 29124 ft | 367 kts | 194° |
| 2026-04-24 19:57 | -47.22601 | -73.12937 | 29158 ft | 367 kts | 194° |
| 2026-04-24 19:58 | -47.27651 | -73.13938 | 29161 ft | 366 kts | 194° |
| 2026-04-24 19:58 | -47.32708 | -73.14953 | 29166 ft | 368 kts | 193° |
| 2026-04-24 19:59 | -47.37802 | -73.15869 | 29120 ft | 367 kts | 193° |
| 2026-04-24 19:59 | -47.42854 | -73.16814 | 29088 ft | 365 kts | 194° |
| 2026-04-24 20:00 | -47.47864 | -73.17734 | 28961 ft | 358 kts | 194° |
| 2026-04-24 20:00 | -47.50314 | -73.18232 | 29143 ft | 355 kts | 195° |
| 2026-04-24 20:00 | -47.52759 | -73.18744 | 29161 ft | 356 kts | 194° |
| 2026-04-24 20:01 | -47.57688 | -73.19674 | 29013 ft | 355 kts | 193° |
| 2026-04-24 20:01 | -47.62540 | -73.20580 | 29124 ft | 352 kts | 194° |
| 2026-04-24 20:02 | -47.66606 | -73.21391 | 29039 ft | 352 kts | 194° |
| 2026-04-24 20:02 | -47.72244 | -73.22476 | 29084 ft | 351 kts | 194° |
| 2026-04-24 20:03 | -47.77081 | -73.23468 | 29154 ft | 352 kts | 194° |
| 2026-04-24 20:03 | -47.81971 | -73.24346 | 29051 ft | 353 kts | 193° |
| 2026-04-24 20:04 | -47.86826 | -73.25270 | 29103 ft | 352 kts | 194° |
| 2026-04-24 20:04 | -47.91678 | -73.26225 | 29071 ft | 351 kts | 194° |
| 2026-04-24 20:05 | -47.96522 | -73.27196 | 29081 ft | 351 kts | 194° |
| 2026-04-24 20:05 | -48.01360 | -73.28166 | 29072 ft | 350 kts | 194° |
| 2026-04-24 20:06 | -48.06161 | -73.29127 | 29071 ft | 350 kts | 194° |
| 2026-04-24 20:06 | -48.10988 | -73.30072 | 29096 ft | 351 kts | 193° |
| 2026-04-24 20:07 | -48.15048 | -73.30840 | 29083 ft | 351 kts | 193° |
| 2026-04-24 20:07 | -48.20692 | -73.31925 | 29076 ft | 351 kts | 194° |
| 2026-04-24 20:08 | -48.25541 | -73.32885 | 29058 ft | 351 kts | 194° |
| 2026-04-24 20:08 | -48.30387 | -73.33844 | 29059 ft | 351 kts | 194° |
| 2026-04-24 20:09 | -48.35230 | -73.34812 | 29054 ft | 351 kts | 194° |
| 2026-04-24 20:09 | -48.40060 | -73.35781 | 29029 ft | 349 kts | 194° |
| 2026-04-24 20:10 | -48.44871 | -73.36725 | 28970 ft | 348 kts | 193° |
| 2026-04-24 20:10 | -48.49650 | -73.37697 | 29037 ft | 346 kts | 194° |
| 2026-04-24 20:11 | -48.54431 | -73.38668 | 29097 ft | 347 kts | 193° |
| 2026-04-24 20:11 | -48.59203 | -73.39628 | 29072 ft | 349 kts | 193° |
| 2026-04-24 20:12 | -48.64036 | -73.40595 | 29060 ft | 350 kts | 193° |
| 2026-04-24 20:12 | -48.68864 | -73.41563 | 29039 ft | 350 kts | 193° |
| 2026-04-24 20:13 | -48.73707 | -73.42532 | 29048 ft | 351 kts | 193° |
| 2026-04-24 20:13 | -48.78546 | -73.43506 | 29073 ft | 351 kts | 193° |
| 2026-04-24 20:14 | -48.83411 | -73.44487 | 29062 ft | 353 kts | 193° |
| 2026-04-24 20:14 | -48.88280 | -73.45467 | 29030 ft | 353 kts | 193° |
| 2026-04-24 20:15 | -48.93145 | -73.46449 | 29026 ft | 352 kts | 193° |
| 2026-04-24 20:15 | -48.97976 | -73.47423 | 29002 ft | 351 kts | 193° |
| 2026-04-24 20:16 | -49.02805 | -73.48425 | 29040 ft | 349 kts | 193° |
| 2026-04-24 20:16 | -49.07622 | -73.49418 | 29007 ft | 348 kts | 193° |
| 2026-04-24 20:17 | -49.12427 | -73.50424 | 29061 ft | 349 kts | 193° |
| 2026-04-24 20:17 | -49.19673 | -73.51875 | 29045 ft | 351 kts | 193° |
| 2026-04-24 20:18 | -49.24512 | -73.52873 | 29076 ft | 351 kts | 193° |
| 2026-04-24 20:18 | -49.29361 | -73.53882 | 29096 ft | 353 kts | 193° |
| 2026-04-24 20:19 | -49.34223 | -73.54868 | 29040 ft | 355 kts | 193° |
| 2026-04-24 20:19 | -49.39120 | -73.55900 | 29092 ft | 356 kts | 193° |
| 2026-04-24 20:20 | -49.44051 | -73.56899 | 29048 ft | 357 kts | 193° |
| 2026-04-24 20:20 | -49.48980 | -73.57906 | 29049 ft | 357 kts | 193° |
| 2026-04-24 20:21 | -49.53896 | -73.58979 | 28967 ft | 357 kts | 193° |
| 2026-04-24 20:21 | -49.58767 | -73.60000 | 29020 ft | 352 kts | 193° |
| 2026-04-24 20:22 | -49.63603 | -73.61006 | 28967 ft | 349 kts | 193° |
| 2026-04-24 20:22 | -49.68362 | -73.61974 | 29033 ft | 342 kts | 195° |
| 2026-04-24 20:23 | -49.73107 | -73.62993 | 29060 ft | 345 kts | 194° |
| 2026-04-24 20:23 | -49.77855 | -73.63984 | 29025 ft | 347 kts | 194° |
| 2026-04-24 20:24 | -49.82658 | -73.64979 | 29012 ft | 349 kts | 194° |
| 2026-04-24 20:24 | -49.86680 | -73.65828 | 29049 ft | 346 kts | 194° |
| 2026-04-24 20:25 | -49.91392 | -73.66822 | 28967 ft | 341 kts | 194° |
| 2026-04-24 20:25 | -49.96069 | -73.67825 | 29003 ft | 337 kts | 194° |
| 2026-04-24 20:26 | -50.00703 | -73.68830 | 29006 ft | 336 kts | 194° |
| 2026-04-24 20:26 | -50.05318 | -73.69763 | 28987 ft | 332 kts | 194° |
| 2026-04-24 20:27 | -50.09891 | -73.70749 | 28996 ft | 331 kts | 195° |
| 2026-04-24 20:27 | -50.14481 | -73.71741 | 29027 ft | 337 kts | 194° |
| 2026-04-24 20:28 | -50.19190 | -73.72728 | 29041 ft | 345 kts | 193° |
| 2026-04-24 20:28 | -50.23957 | -73.73739 | 29039 ft | 349 kts | 195° |
| 2026-04-24 20:29 | -50.28771 | -73.74728 | 29014 ft | 348 kts | 195° |
| 2026-04-24 20:29 | -50.33563 | -73.75737 | 29003 ft | 347 kts | 195° |
| 2026-04-24 20:30 | -50.35995 | -73.75863 | 29001 ft | 361 kts | 180° |
| 2026-04-24 20:30 | -50.38447 | -73.74631 | 28996 ft | 378 kts | 167° |
| 2026-04-24 20:30 | -50.43135 | -73.70652 | 29045 ft | 386 kts | 160° |
| 2026-04-24 20:31 | -50.47723 | -73.66230 | 29009 ft | 387 kts | 159° |
| 2026-04-24 20:31 | -50.52322 | -73.61815 | 28947 ft | 387 kts | 159° |
| 2026-04-24 20:32 | -50.56868 | -73.57459 | 28945 ft | 378 kts | 160° |
| 2026-04-24 20:32 | -50.61369 | -73.53339 | 28937 ft | 372 kts | 160° |
| 2026-04-24 20:33 | -50.65750 | -73.49154 | 28985 ft | 370 kts | 160° |
| 2026-04-24 20:33 | -50.70160 | -73.45021 | 28898 ft | 366 kts | 160° |
| 2026-04-24 20:34 | -50.74507 | -73.40861 | 28904 ft | 366 kts | 162° |
| 2026-04-24 20:34 | -50.78929 | -73.36773 | 28970 ft | 370 kts | 159° |
| 2026-04-24 20:35 | -50.83360 | -73.32582 | 28936 ft | 370 kts | 159° |
| 2026-04-24 20:35 | -50.87760 | -73.28368 | 28947 ft | 369 kts | 159° |
| 2026-04-24 20:36 | -50.92141 | -73.24159 | 28720 ft | 370 kts | 159° |
| 2026-04-24 20:36 | -50.94341 | -73.22041 | 28293 ft | 368 kts | 159° |
| 2026-04-24 20:36 | -50.96519 | -73.19952 | 27851 ft | 363 kts | 159° |
| 2026-04-24 20:37 | -50.98635 | -73.17899 | 27471 ft | 359 kts | 159° |
| 2026-04-24 20:37 | -51.00771 | -73.15815 | 27103 ft | 354 kts | 159° |
| 2026-04-24 20:37 | -51.02851 | -73.13826 | 26727 ft | 352 kts | 160° |
| 2026-04-24 20:37 | -51.04948 | -73.11842 | 26338 ft | 351 kts | 159° |
| 2026-04-24 20:38 | -51.07031 | -73.09829 | 25970 ft | 349 kts | 160° |
| 2026-04-24 20:38 | -51.09105 | -73.07817 | 25548 ft | 347 kts | 160° |
| 2026-04-24 20:38 | -51.11163 | -73.05824 | 25133 ft | 345 kts | 160° |
| 2026-04-24 20:38 | -51.13211 | -73.03842 | 24741 ft | 342 kts | 160° |
| 2026-04-24 20:39 | -51.15231 | -73.01874 | 24394 ft | 338 kts | 160° |
| 2026-04-24 20:39 | -51.17230 | -72.99920 | 24040 ft | 336 kts | 160° |
| 2026-04-24 20:39 | -51.19215 | -72.97980 | 23696 ft | 334 kts | 160° |
| 2026-04-24 20:39 | -51.21193 | -72.96048 | 23353 ft | 333 kts | 160° |
| 2026-04-24 20:40 | -51.23169 | -72.94121 | 22936 ft | 332 kts | 160° |
| 2026-04-24 20:40 | -51.25142 | -72.92204 | 22533 ft | 331 kts | 160° |
| 2026-04-24 20:40 | -51.27083 | -72.90321 | 22174 ft | 330 kts | 160° |
| 2026-04-24 20:40 | -51.29051 | -72.88432 | 21754 ft | 329 kts | 160° |
| 2026-04-24 20:41 | -51.31016 | -72.86551 | 21373 ft | 329 kts | 159° |
| 2026-04-24 20:41 | -51.32977 | -72.84645 | 21004 ft | 329 kts | 159° |
| 2026-04-24 20:41 | -51.34930 | -72.82743 | 20634 ft | 328 kts | 159° |
| 2026-04-24 20:41 | -51.36884 | -72.80845 | 20259 ft | 328 kts | 159° |
| 2026-04-24 20:42 | -51.38835 | -72.78959 | 19891 ft | 328 kts | 159° |
| 2026-04-24 20:42 | -51.40780 | -72.77053 | 19522 ft | 328 kts | 158° |
| 2026-04-24 20:42 | -51.42700 | -72.75157 | 19190 ft | 328 kts | 158° |
| 2026-04-24 20:42 | -51.44641 | -72.73238 | 18850 ft | 328 kts | 158° |
| 2026-04-24 20:43 | -51.46584 | -72.71324 | 18540 ft | 328 kts | 158° |
| 2026-04-24 20:43 | -51.48535 | -72.69413 | 18257 ft | 328 kts | 158° |
| 2026-04-24 20:43 | -51.50486 | -72.67514 | 17903 ft | 328 kts | 158° |
| 2026-04-24 20:43 | -51.52437 | -72.65604 | 17505 ft | 328 kts | 157° |
| 2026-04-24 20:44 | -51.54390 | -72.63682 | 17123 ft | 328 kts | 157° |
| 2026-04-24 20:44 | -51.56339 | -72.61770 | 16751 ft | 328 kts | 156° |
| 2026-04-24 20:44 | -51.58270 | -72.59858 | 16367 ft | 323 kts | 156° |
| 2026-04-24 20:44 | -51.60162 | -72.57967 | 15989 ft | 318 kts | 156° |
| 2026-04-24 20:45 | -51.62031 | -72.56099 | 15601 ft | 314 kts | 156° |
| 2026-04-24 20:45 | -51.63871 | -72.54266 | 15229 ft | 310 kts | 155° |
| 2026-04-24 20:45 | -51.65703 | -72.52455 | 14854 ft | 309 kts | 156° |
| 2026-04-24 20:45 | -51.67540 | -72.50649 | 14486 ft | 311 kts | 155° |
| 2026-04-24 20:46 | -51.69392 | -72.48820 | 14152 ft | 312 kts | 155° |
| 2026-04-24 20:46 | -51.71244 | -72.46985 | 13798 ft | 314 kts | 155° |
| 2026-04-24 20:46 | -51.73108 | -72.45137 | 13426 ft | 315 kts | 154° |
| 2026-04-24 20:46 | -51.74933 | -72.43148 | 13024 ft | 318 kts | 150° |
| 2026-04-24 20:47 | -51.76697 | -72.41069 | 12665 ft | 318 kts | 149° |
| 2026-04-24 20:47 | -51.78471 | -72.38921 | 12299 ft | 318 kts | 149° |
| 2026-04-24 20:47 | -51.80229 | -72.36764 | 11945 ft | 317 kts | 149° |
| 2026-04-24 20:47 | -51.81978 | -72.34603 | 11580 ft | 317 kts | 149° |
| 2026-04-24 20:48 | -51.83721 | -72.32439 | 11235 ft | 316 kts | 149° |
| 2026-04-24 20:48 | -51.85454 | -72.30279 | 10888 ft | 314 kts | 149° |
| 2026-04-24 20:48 | -51.87186 | -72.28126 | 10547 ft | 311 kts | 149° |
| 2026-04-24 20:48 | -51.88903 | -72.26015 | 10206 ft | 308 kts | 149° |
| 2026-04-24 20:49 | -51.90607 | -72.23927 | 9878 ft | 306 kts | 150° |
| 2026-04-24 20:49 | -51.92294 | -72.21846 | 9533 ft | 304 kts | 150° |
| 2026-04-24 20:49 | -51.93960 | -72.19799 | 9168 ft | 303 kts | 150° |
| 2026-04-24 20:49 | -51.95667 | -72.17728 | 8808 ft | 301 kts | 150° |
| 2026-04-24 20:50 | -51.97312 | -72.15730 | 8454 ft | 297 kts | 150° |
| 2026-04-24 20:50 | -51.98958 | -72.13730 | 8104 ft | 294 kts | 150° |
| 2026-04-24 20:50 | -52.00577 | -72.11731 | 7805 ft | 290 kts | 150° |
| 2026-04-24 20:50 | -52.02180 | -72.09760 | 7530 ft | 287 kts | 150° |
| 2026-04-24 20:51 | -52.03768 | -72.07805 | 7274 ft | 286 kts | 151° |
| 2026-04-24 20:51 | -52.05337 | -72.05854 | 7144 ft | 281 kts | 151° |
| 2026-04-24 20:51 | -52.06875 | -72.03929 | 7101 ft | 278 kts | 151° |
| 2026-04-24 20:51 | -52.08428 | -72.01990 | 7117 ft | 285 kts | 149° |
| 2026-04-24 20:52 | -52.09992 | -71.99915 | 7095 ft | 295 kts | 148° |
| 2026-04-24 20:52 | -52.11547 | -71.97756 | 7089 ft | 292 kts | 147° |
| 2026-04-24 20:52 | -52.13071 | -71.95610 | 7091 ft | 288 kts | 147° |
| 2026-04-24 20:52 | -52.14571 | -71.93473 | 7100 ft | 285 kts | 147° |
| 2026-04-24 20:53 | -52.16052 | -71.91353 | 7086 ft | 282 kts | 147° |
| 2026-04-24 20:53 | -52.17517 | -71.89244 | 7105 ft | 281 kts | 147° |
| 2026-04-24 20:53 | -52.18980 | -71.87140 | 7121 ft | 280 kts | 147° |
| 2026-04-24 20:53 | -52.20447 | -71.85060 | 7099 ft | 279 kts | 147° |
| 2026-04-24 20:54 | -52.21891 | -71.83029 | 7082 ft | 277 kts | 148° |
| 2026-04-24 20:54 | -52.23350 | -71.80976 | 7085 ft | 277 kts | 148° |
| 2026-04-24 20:54 | -52.24812 | -71.78925 | 7090 ft | 279 kts | 147° |
| 2026-04-24 20:54 | -52.26282 | -71.76835 | 7087 ft | 282 kts | 147° |
| 2026-04-24 20:55 | -52.27758 | -71.74721 | 7086 ft | 283 kts | 147° |
| 2026-04-24 20:55 | -52.29249 | -71.72579 | 7110 ft | 287 kts | 147° |
| 2026-04-24 20:55 | -52.30758 | -71.70406 | 7109 ft | 290 kts | 147° |
| 2026-04-24 20:55 | -52.32285 | -71.68214 | 7087 ft | 294 kts | 146° |
| 2026-04-24 20:56 | -52.33843 | -71.65997 | 7113 ft | 299 kts | 146° |
| 2026-04-24 20:56 | -52.35421 | -71.63759 | 7086 ft | 303 kts | 147° |
| 2026-04-24 20:56 | -52.37027 | -71.61488 | 7089 ft | 306 kts | 147° |
| 2026-04-24 20:56 | -52.38642 | -71.59192 | 7091 ft | 305 kts | 146° |
| 2026-04-24 20:57 | -52.40205 | -71.56933 | 7071 ft | 295 kts | 146° |
| 2026-04-24 20:57 | -52.41725 | -71.54737 | 7061 ft | 287 kts | 146° |
| 2026-04-24 20:57 | -52.43208 | -71.52588 | 7051 ft | 282 kts | 146° |
| 2026-04-24 20:57 | -52.44660 | -71.50481 | 7046 ft | 282 kts | 147° |
| 2026-04-24 20:58 | -52.46151 | -71.48319 | 7057 ft | 283 kts | 146° |
| 2026-04-24 20:58 | -52.47609 | -71.46206 | 7057 ft | 284 kts | 147° |
| 2026-04-24 20:58 | -52.49095 | -71.44057 | 7054 ft | 285 kts | 146° |
| 2026-04-24 20:58 | -52.50588 | -71.41899 | 7054 ft | 287 kts | 147° |
| 2026-04-24 20:59 | -52.52089 | -71.39727 | 7053 ft | 288 kts | 147° |
| 2026-04-24 20:59 | -52.53603 | -71.37562 | 7059 ft | 289 kts | 146° |
| 2026-04-24 20:59 | -52.55120 | -71.35404 | 7064 ft | 287 kts | 146° |
| 2026-04-24 20:59 | -52.56620 | -71.33249 | 7043 ft | 286 kts | 146° |
| 2026-04-24 21:00 | -52.58112 | -71.31077 | 7039 ft | 284 kts | 146° |
| 2026-04-24 21:00 | -52.59581 | -71.28943 | 7032 ft | 279 kts | 146° |
| 2026-04-24 21:00 | -52.61034 | -71.26846 | 7028 ft | 278 kts | 146° |
| 2026-04-24 21:00 | -52.62482 | -71.24759 | 7033 ft | 276 kts | 146° |
| 2026-04-24 21:01 | -52.63928 | -71.22680 | 7031 ft | 273 kts | 146° |
| 2026-04-24 21:01 | -52.65348 | -71.20629 | 7016 ft | 270 kts | 146° |
| 2026-04-24 21:01 | -52.66748 | -71.18599 | 7025 ft | 267 kts | 146° |
| 2026-04-24 21:01 | -52.68136 | -71.16582 | 7018 ft | 265 kts | 146° |
| 2026-04-24 21:02 | -52.69508 | -71.14581 | 7013 ft | 263 kts | 146° |
| 2026-04-24 21:02 | -52.70889 | -71.12567 | 6800 ft | 268 kts | 146° |
| 2026-04-24 21:02 | -52.72307 | -71.10492 | 6526 ft | 275 kts | 146° |
| 2026-04-24 21:02 | -52.73743 | -71.08377 | 6223 ft | 279 kts | 146° |
| 2026-04-24 21:03 | -52.75197 | -71.06232 | 5893 ft | 282 kts | 146° |
| 2026-04-24 21:03 | -52.76667 | -71.04062 | 5542 ft | 284 kts | 145° |
| 2026-04-24 21:03 | -52.78141 | -71.01887 | 5197 ft | 285 kts | 145° |
| 2026-04-24 21:03 | -52.79623 | -70.99703 | 4847 ft | 286 kts | 145° |
| 2026-04-24 21:04 | -52.81096 | -70.97535 | 4544 ft | 287 kts | 145° |
| 2026-04-24 21:04 | -52.82588 | -70.95339 | 4246 ft | 287 kts | 145° |
| 2026-04-24 21:04 | -52.83998 | -70.93077 | 4046 ft | 291 kts | 134° |
| 2026-04-24 21:04 | -52.84940 | -70.90065 | 3995 ft | 292 kts | 117° |
| 2026-04-24 21:05 | -52.85623 | -70.86913 | 3994 ft | 289 kts | 113° |
| 2026-04-24 21:05 | -52.86218 | -70.83763 | 3996 ft | 285 kts | 111° |
| 2026-04-24 21:05 | -52.86771 | -70.80629 | 4000 ft | 282 kts | 110° |
| 2026-04-24 21:05 | -52.87307 | -70.77532 | 4000 ft | 276 kts | 111° |
| 2026-04-24 21:06 | -52.87818 | -70.74583 | 3987 ft | 257 kts | 111° |
| 2026-04-24 21:06 | -52.88302 | -70.71833 | 3970 ft | 240 kts | 112° |
| 2026-04-24 21:06 | -52.88767 | -70.69257 | 3984 ft | 231 kts | 113° |
| 2026-04-24 21:06 | -52.89249 | -70.66704 | 3987 ft | 233 kts | 114° |
| 2026-04-24 21:07 | -52.89742 | -70.64147 | 3995 ft | 234 kts | 114° |
| 2026-04-24 21:07 | -52.90234 | -70.61586 | 3948 ft | 235 kts | 113° |
| 2026-04-24 21:07 | -52.90911 | -70.59168 | 3851 ft | 226 kts | 139° |
| 2026-04-24 21:07 | -52.92101 | -70.57714 | 3752 ft | 212 kts | 163° |
| 2026-04-24 21:08 | -52.93443 | -70.56786 | 3644 ft | 207 kts | 172° |
| 2026-04-24 21:08 | -52.94829 | -70.56217 | 3510 ft | 204 kts | 180° |
| 2026-04-24 21:08 | -52.96233 | -70.55893 | 3358 ft | 203 kts | 184° |
| 2026-04-24 21:08 | -52.97596 | -70.55984 | 3200 ft | 187 kts | 208° |
| 2026-04-24 21:09 | -52.98478 | -70.57290 | 3051 ft | 165 kts | 248° |
| 2026-04-24 21:09 | -52.98688 | -70.59109 | 2908 ft | 157 kts | 262° |
| 2026-04-24 21:09 | -52.98757 | -70.60856 | 2747 ft | 145 kts | 265° |
| 2026-04-24 21:09 | -52.98779 | -70.62403 | 2533 ft | 121 kts | 266° |
| 2026-04-24 21:10 | -52.98789 | -70.63754 | 2296 ft | 116 kts | 266° |
| 2026-04-24 21:10 | -52.98935 | -70.65031 | 2080 ft | 113 kts | 248° |
| 2026-04-24 21:10 | -52.99279 | -70.66150 | 1928 ft | 101 kts | 246° |
| 2026-04-24 21:10 | -52.99518 | -70.67179 | 1780 ft | 92 kts | 258° |
| 2026-04-24 21:11 | -52.99632 | -70.68191 | 1717 ft | 89 kts | 261° |
| 2026-04-24 21:11 | -52.99721 | -70.69197 | 1709 ft | 87 kts | 262° |
| 2026-04-24 21:11 | -52.99800 | -70.70203 | 1713 ft | 88 kts | 262° |
| 2026-04-24 21:11 | -52.99867 | -70.71244 | 1607 ft | 96 kts | 264° |
| 2026-04-24 21:12 | -52.99912 | -70.72381 | 1480 ft | 100 kts | 266° |
| 2026-04-24 21:12 | -52.99932 | -70.73147 | 1389 ft | 101 kts | 266° |
| 2026-04-24 21:12 | -52.99956 | -70.74696 | 1205 ft | 103 kts | 268° |
| 2026-04-24 21:12 | -52.99962 | -70.75485 | 1096 ft | 103 kts | 268° |
| 2026-04-24 21:13 | -52.99974 | -70.76665 | 943 ft | 101 kts | 268° |
| 2026-04-24 21:13 | -52.99994 | -70.77826 | 810 ft | 99 kts | 268° |
| 2026-04-24 21:13 | -53.00031 | -70.78946 | 668 ft | 99 kts | 269° |
| 2026-04-24 21:13 | -53.00053 | -70.80478 | 487 ft | 102 kts | 271° |
| 2026-04-24 21:14 | -53.00048 | -70.81283 | 399 ft | 104 kts | 272° |
| 2026-04-24 21:14 | -53.00046 | -70.82428 | 237 ft | 95 kts | 273° |
| 2026-04-24 21:14 | -53.00064 | -70.83523 | 150 ft | 92 kts | 272° |
| 2026-04-24 21:14 | -53.00077 | -70.84531 | 117 ft | 81 kts | 270° |
| 2026-04-24 21:15 | -53.00084 | -70.85274 | 114 ft | 47 kts | 267° |
| 2026-04-24 21:15 | -53.00093 | -70.85689 | 113 ft | 27 kts | 268° |
| 2026-04-24 21:15 | -53.00095 | -70.85933 | 115 ft | 17 kts | 269° |
| 2026-04-24 21:15 | -53.00097 | -70.86113 | 115 ft | 15 kts | 269° |
| 2026-04-24 21:16 | -53.00101 | -70.86271 | 116 ft | 11 kts | 262° |
| 2026-04-24 21:16 | -53.00120 | -70.86307 | 115 ft | 5 kts | 200° |
| 2026-04-24 21:16 | -53.00169 | -70.86272 | 114 ft | 12 kts | 139° |
| 2026-04-24 21:16 | -53.00245 | -70.86160 | 112 ft | 17 kts | 137° |
| 2026-04-24 21:17 | -53.00268 | -70.85956 | 112 ft | 20 kts | 89° |
| 2026-04-24 21:17 | -53.00266 | -70.85806 | 111 ft | 22 kts | 89° |
| 2026-04-24 21:19 | -53.00266 | -70.85795 | 112 ft | 22 kts | 88° |
| 2026-04-24 21:19 | -53.00263 | -70.85528 | 113 ft | 24 kts | 89° |
| 2026-04-24 21:19 | -53.00258 | -70.85230 | 113 ft | 27 kts | 88° |
| 2026-04-24 21:19 | -53.00254 | -70.84935 | 114 ft | 21 kts | 89° |
| 2026-04-24 21:20 | -53.00383 | -70.84598 | 111 ft | 17 kts | 108° |
| 2026-04-24 21:20 | -53.00409 | -70.84452 | 113 ft | 10 kts | 175° |
| 2026-04-24 21:20 | -53.00456 | -70.84450 | 113 ft | 1 kts | 177° |
| 2026-04-24 21:21 | -53.00461 | -70.84449 | 113 ft | 0 kts | 175° |